createdAt,value
2022-07-27T00:01:50.837Z,100848.09
2022-07-27T00:04:21.787Z,100846.28
2022-07-27T00:06:48.694Z,100848.97
2022-07-27T00:09:16.149Z,100853.84
2022-07-27T00:11:43.241Z,100853.53
2022-07-27T00:14:09.965Z,100853.34
2022-07-27T00:16:36.944Z,100858.56
2022-07-27T00:19:04.213Z,100855.19
2022-07-27T00:21:35.788Z,100858.91
2022-07-27T00:24:11.686Z,100851.00
2022-07-27T00:26:38.767Z,100856.88
2022-07-27T00:29:05.647Z,100859.75
2022-07-27T00:31:32.208Z,100861.94
2022-07-27T00:33:59.110Z,100860.94
2022-07-27T00:36:26.395Z,100864.09
2022-07-27T00:38:53.073Z,100862.97
2022-07-27T00:41:20.138Z,100860.41
2022-07-27T00:43:58.063Z,100857.19
2022-07-27T00:46:26.519Z,100855.19
2022-07-27T00:48:53.835Z,100846.41
2022-07-27T00:51:22.049Z,100841.41
2022-07-27T00:56:30.330Z,100850.13
2022-07-27T00:58:58.216Z,100852.47
2022-07-27T01:01:25.132Z,100847.75
2022-07-27T01:03:51.926Z,100856.88
2022-07-27T01:06:26.846Z,100857.53
2022-07-27T01:09:18.163Z,100858.72
2022-07-27T01:11:46.854Z,100861.91
2022-07-27T01:14:15.226Z,100851.44
2022-07-27T01:16:42.762Z,100851.41
2022-07-27T01:19:10.823Z,100859.84
2022-07-27T01:21:38.108Z,100849.06
2022-07-27T01:24:05.355Z,100848.44
2022-07-27T01:26:33.671Z,100855.47
2022-07-27T01:29:01.323Z,100852.81
2022-07-27T01:31:28.945Z,100856.88
2022-07-27T01:33:55.920Z,100858.53
2022-07-27T01:36:22.446Z,100847.75
2022-07-27T01:38:49.284Z,100846.41
2022-07-27T01:41:15.810Z,100855.84
2022-07-27T01:43:42.548Z,100862.91
2022-07-27T01:46:09.159Z,100854.50
2022-07-27T01:48:36.243Z,100860.94
2022-07-27T01:51:02.812Z,100849.81
2022-07-27T01:53:29.355Z,100852.34
2022-07-27T01:55:55.936Z,100852.50
2022-07-27T01:58:22.445Z,100849.16
2022-07-27T02:00:50.153Z,100848.66
2022-07-27T02:03:17.120Z,100847.28
2022-07-27T02:05:43.729Z,100849.66
2022-07-27T02:08:10.374Z,100840.91
2022-07-27T02:13:22.184Z,100842.94
2022-07-27T02:15:49.694Z,100836.19
2022-07-27T02:18:26.773Z,100832.66
2022-07-27T02:21:02.802Z,100836.34
2022-07-27T02:23:31.368Z,100829.94
2022-07-27T02:25:58.749Z,100834.00
2022-07-27T02:28:26.074Z,100828.78
2022-07-27T02:30:53.011Z,100840.38
2022-07-27T02:33:19.723Z,100831.97
2022-07-27T02:35:46.352Z,100834.00
2022-07-27T02:38:13.131Z,100843.94
2022-07-27T02:40:39.840Z,100839.22
2022-07-27T02:43:06.514Z,100846.94
2022-07-27T02:45:33.246Z,100848.66
2022-07-27T02:47:59.908Z,100838.03
2022-07-27T02:50:26.736Z,100845.22
2022-07-27T02:52:53.490Z,100845.78
2022-07-27T02:55:20.352Z,100842.06
2022-07-27T02:57:46.926Z,100841.38
2022-07-27T03:00:16.297Z,100848.75
2022-07-27T03:02:43.082Z,100846.44
2022-07-27T03:05:11.465Z,100850.22
2022-07-27T03:07:38.429Z,100848.47
2022-07-27T03:10:05.803Z,100845.97
2022-07-27T03:12:32.426Z,100855.38
2022-07-27T03:14:58.963Z,100853.84
2022-07-27T03:17:26.611Z,100850.34
2022-07-27T03:19:53.213Z,100847.16
2022-07-27T03:22:19.743Z,100852.34
2022-07-27T03:24:46.505Z,100859.69
2022-07-27T03:27:13.603Z,100859.00
2022-07-27T03:29:40.150Z,100859.00
2022-07-27T03:32:06.888Z,100857.66
2022-07-27T03:34:33.467Z,100854.66
2022-07-27T03:37:00.110Z,100859.34
2022-07-27T03:39:27.082Z,100863.03
2022-07-27T03:41:53.638Z,100866.38
2022-07-27T03:44:20.173Z,100871.00
2022-07-27T03:46:46.769Z,100866.38
2022-07-27T03:49:13.995Z,100873.44
2022-07-27T03:51:41.887Z,100871.75
2022-07-27T03:54:08.431Z,100874.75
2022-07-27T03:56:35.051Z,100870.47
2022-07-27T03:59:01.618Z,100874.81
2022-07-27T04:01:28.303Z,100876.66
2022-07-27T04:03:54.834Z,100871.25
2022-07-27T04:06:21.767Z,100874.66
2022-07-27T04:08:48.415Z,100873.34
2022-07-27T04:11:18.824Z,100862.13
2022-07-27T04:13:49.253Z,100863.97
2022-07-27T04:16:16.231Z,100868.81
2022-07-27T04:18:42.991Z,100862.28
2022-07-27T04:21:09.657Z,100866.69
2022-07-27T04:23:38.490Z,100869.41
2022-07-27T04:26:05.274Z,100869.28
2022-07-27T04:28:32.839Z,100870.19
2022-07-27T04:30:59.615Z,100870.13
2022-07-27T04:33:26.307Z,100862.94
2022-07-27T04:35:53.197Z,100866.34
2022-07-27T04:38:20.033Z,100869.69
2022-07-27T04:40:46.586Z,100872.03
2022-07-27T04:43:13.187Z,100876.41
2022-07-27T04:45:39.820Z,100862.28
2022-07-27T04:48:08.634Z,100871.16
2022-07-27T04:50:39.787Z,100872.34
2022-07-27T04:53:06.359Z,100877.94
2022-07-27T04:55:33.119Z,100875.88
2022-07-27T04:57:59.728Z,100868.63
2022-07-27T05:00:26.332Z,100879.84
2022-07-27T05:02:52.900Z,100885.63
2022-07-27T05:05:20.157Z,100886.03
2022-07-27T05:07:46.782Z,100887.97
2022-07-27T05:10:19.505Z,100883.28
2022-07-27T05:12:46.940Z,100885.50
2022-07-27T05:15:13.497Z,100886.84
2022-07-27T05:17:40.356Z,100893.59
2022-07-27T05:20:07.545Z,100901.16
2022-07-27T05:22:39.339Z,100892.81
2022-07-27T05:25:07.648Z,100892.94
2022-07-27T05:27:34.207Z,100893.41
2022-07-27T05:30:00.763Z,100905.56
2022-07-27T05:32:27.350Z,100904.84
2022-07-27T05:34:54.094Z,100910.53
2022-07-27T05:37:20.735Z,100924.03
2022-07-27T05:39:47.286Z,100929.03
2022-07-27T05:42:14.161Z,100944.25
2022-07-27T05:44:40.694Z,100949.34
2022-07-27T05:47:07.594Z,100951.19
2022-07-27T05:49:38.142Z,100962.09
2022-07-27T05:52:04.930Z,100954.34
2022-07-27T05:54:31.497Z,100953.81
2022-07-27T05:56:58.303Z,100957.78
2022-07-27T05:59:24.844Z,100954.16
2022-07-27T06:01:51.663Z,100961.34
2022-07-27T06:04:18.359Z,100967.44
2022-07-27T06:07:03.399Z,100964.84
2022-07-27T06:09:29.926Z,100962.53
2022-07-27T06:11:56.918Z,100962.78
2022-07-27T06:14:23.475Z,100963.25
2022-07-27T06:16:50.072Z,100963.13
2022-07-27T06:19:16.691Z,100964.31
2022-07-27T06:21:43.234Z,100967.22
2022-07-27T06:24:09.773Z,100976.41
2022-07-27T06:26:36.433Z,100969.00
2022-07-27T06:29:02.997Z,100976.09
2022-07-27T06:31:37.775Z,100977.13
2022-07-27T06:34:08.188Z,100974.34
2022-07-27T06:36:39.787Z,100976.28
2022-07-27T06:39:06.354Z,100983.19
2022-07-27T06:41:34.522Z,100974.88
2022-07-27T06:44:01.076Z,100975.53
2022-07-27T06:46:27.708Z,100980.47
2022-07-27T06:48:56.661Z,100983.59
2022-07-27T06:51:24.093Z,100982.72
2022-07-27T06:53:53.217Z,100982.22
2022-07-27T06:56:21.253Z,100982.13
2022-07-27T06:58:48.615Z,100983.03
2022-07-27T07:01:15.301Z,100991.34
2022-07-27T07:03:42.607Z,100981.44
2022-07-27T07:06:09.242Z,100983.91
2022-07-27T07:08:36.267Z,100981.91
2022-07-27T07:11:03.359Z,100987.72
2022-07-27T07:13:33.111Z,100990.63
2022-07-27T07:16:03.716Z,100979.22
2022-07-27T07:18:30.351Z,100977.03
2022-07-27T07:20:56.886Z,100976.41
2022-07-27T07:23:23.474Z,100972.50
2022-07-27T07:25:50.105Z,100967.88
2022-07-27T07:28:16.693Z,100968.56
2022-07-27T07:30:44.198Z,100962.94
2022-07-27T07:33:10.749Z,100971.78
2022-07-27T07:35:37.296Z,100974.88
2022-07-27T07:38:23.941Z,100970.91
2022-07-27T07:40:50.482Z,100989.53
2022-07-27T07:43:17.645Z,100976.72
2022-07-27T07:45:51.633Z,100978.94
2022-07-27T07:48:20.294Z,100975.97
2022-07-27T07:50:52.065Z,100983.34
2022-07-27T07:53:21.469Z,100975.97
2022-07-27T07:55:48.092Z,100986.66
2022-07-27T07:58:15.098Z,100981.66
2022-07-27T08:00:42.118Z,100985.09
2022-07-27T08:03:08.959Z,100976.13
2022-07-27T08:05:35.970Z,100972.69
2022-07-27T08:08:02.775Z,100975.28
2022-07-27T08:10:29.370Z,100968.63
2022-07-27T08:12:56.523Z,100971.31
2022-07-27T08:15:30.028Z,100967.66
2022-07-27T08:18:03.297Z,100978.88
2022-07-27T08:20:29.887Z,100977.97
2022-07-27T08:22:57.347Z,100974.28
2022-07-27T08:25:23.891Z,100959.97
2022-07-27T08:27:50.448Z,100969.72
2022-07-27T08:30:17.867Z,100960.41
2022-07-27T08:32:53.312Z,100960.50
2022-07-27T08:35:21.124Z,100974.94
2022-07-27T08:37:48.264Z,100956.56
2022-07-27T08:43:02.913Z,100970.56
2022-07-27T08:45:32.873Z,100961.91
2022-07-27T08:47:59.922Z,100971.13
2022-07-27T08:50:30.592Z,100974.38
2022-07-27T08:53:00.503Z,100971.91
2022-07-27T08:55:28.491Z,100968.69
2022-07-27T08:58:02.249Z,100978.97
2022-07-27T09:00:29.944Z,100979.13
2022-07-27T09:02:57.787Z,100970.78
2022-07-27T09:05:24.376Z,100972.53
2022-07-27T09:07:51.714Z,100969.94
2022-07-27T09:10:33.276Z,100967.47
2022-07-27T09:13:15.644Z,100968.34
2022-07-27T09:16:12.780Z,100972.28
2022-07-27T09:18:33.795Z,100972.91
2022-07-27T09:21:23.916Z,100974.19
2022-07-27T09:23:53.358Z,100983.56
2022-07-27T09:26:33.343Z,100982.81
2022-07-27T09:29:06.972Z,100987.97
2022-07-27T09:31:42.235Z,100986.88
2022-07-27T09:34:09.453Z,100973.34
2022-07-27T09:36:52.950Z,100985.38
2022-07-27T09:39:22.771Z,100977.66
2022-07-27T09:41:57.643Z,100981.09
2022-07-27T09:44:42.963Z,100978.28
2022-07-27T09:47:26.744Z,100987.06
2022-07-27T09:50:06.847Z,100982.06
2022-07-27T09:52:33.410Z,100987.22
2022-07-27T09:55:05.539Z,100983.75
2022-07-27T09:57:51.477Z,100983.28
2022-07-27T10:00:18.493Z,100988.00
2022-07-27T10:02:45.330Z,100983.72
2022-07-27T10:05:13.974Z,100982.09
2022-07-27T10:07:40.817Z,100978.03
2022-07-27T10:10:07.818Z,100973.25
2022-07-27T10:12:34.995Z,100971.06
2022-07-27T10:15:01.626Z,100970.56
2022-07-27T10:17:28.392Z,100970.47
2022-07-27T10:19:56.949Z,100968.00
2022-07-27T10:22:49.170Z,100964.91
2022-07-27T10:25:15.751Z,100983.59
2022-07-27T10:27:42.427Z,100965.59
2022-07-27T10:30:09.715Z,100971.03
2022-07-27T10:32:37.126Z,100978.31
2022-07-27T10:35:03.934Z,100982.97
2022-07-27T10:37:33.599Z,100976.59
2022-07-27T10:40:21.880Z,100977.75
2022-07-27T10:42:54.259Z,100982.00
2022-07-27T10:45:22.432Z,100986.56
2022-07-27T10:47:52.816Z,100978.47
2022-07-27T10:50:20.819Z,100987.31
2022-07-27T10:52:58.479Z,100985.47
2022-07-27T10:55:36.258Z,100986.13
2022-07-27T10:58:15.216Z,100991.78
2022-07-27T11:00:58.985Z,100986.53
2022-07-27T11:03:27.074Z,100981.72
2022-07-27T11:06:21.987Z,100987.09
2022-07-27T11:09:27.192Z,100997.94
2022-07-27T11:11:40.534Z,100994.47
2022-07-27T11:14:08.337Z,100995.25
2022-07-27T11:16:53.988Z,100991.97
2022-07-27T11:19:23.537Z,100989.19
2022-07-27T11:21:52.324Z,100985.00
2022-07-27T11:24:19.194Z,100982.25
2022-07-27T11:26:51.174Z,100987.13
2022-07-27T11:29:21.320Z,100984.91
2022-07-27T11:31:56.388Z,100986.75
2022-07-27T11:34:29.158Z,100987.53
2022-07-27T11:36:58.237Z,100986.69
2022-07-27T11:42:20.843Z,100979.22
2022-07-27T11:44:48.846Z,100970.38
2022-07-27T11:47:20.613Z,100979.59
2022-07-27T11:49:47.271Z,100976.69
2022-07-27T11:52:17.517Z,100971.78
2022-07-27T11:54:44.074Z,100977.81
2022-07-27T11:57:13.754Z,100962.31
2022-07-27T11:59:42.635Z,100968.00
2022-07-27T12:02:21.868Z,100970.03
2022-07-27T12:04:50.649Z,100961.47
2022-07-27T12:07:22.071Z,100971.19
2022-07-27T12:09:56.562Z,100981.50
2022-07-27T12:12:25.890Z,100985.34
2022-07-27T12:14:57.260Z,100972.94
2022-07-27T12:17:29.995Z,100964.34
2022-07-27T12:20:07.148Z,100958.91
2022-07-27T12:22:36.930Z,100963.84
2022-07-27T12:25:24.035Z,100963.19
2022-07-27T12:28:01.061Z,100964.19
2022-07-27T12:30:37.884Z,100965.00
2022-07-27T12:33:07.487Z,100966.22
2022-07-27T12:35:46.425Z,100966.66
2022-07-27T12:38:13.556Z,100957.50
2022-07-27T12:40:46.137Z,100955.56
2022-07-27T12:43:17.379Z,100958.09
2022-07-27T12:45:44.114Z,100962.91
2022-07-27T12:48:20.295Z,100955.19
2022-07-27T12:50:56.557Z,100965.91
2022-07-27T12:53:23.492Z,100956.47
2022-07-27T12:55:50.032Z,100955.09
2022-07-27T12:58:17.080Z,100955.44
2022-07-27T13:00:43.913Z,100954.56
2022-07-27T13:03:10.595Z,100954.03
2022-07-27T13:05:37.159Z,100962.38
2022-07-27T13:08:04.620Z,100956.28
2022-07-27T13:10:31.357Z,100949.41
2022-07-27T13:12:58.936Z,100948.94
2022-07-27T13:15:26.264Z,100955.38
2022-07-27T13:17:52.893Z,100963.44
2022-07-27T13:20:19.726Z,100967.94
2022-07-27T13:22:46.877Z,100954.97
2022-07-27T13:25:16.996Z,100961.09
2022-07-27T13:27:47.008Z,100967.06
2022-07-27T13:30:15.769Z,100959.19
2022-07-27T13:32:43.715Z,100958.91
2022-07-27T13:35:12.419Z,100960.19
2022-07-27T13:37:39.646Z,100960.31
2022-07-27T13:40:07.646Z,100961.41
2022-07-27T13:42:34.211Z,100957.78
2022-07-27T13:45:08.480Z,100959.34
2022-07-27T13:47:35.935Z,100958.34
2022-07-27T13:50:03.488Z,100957.28
2022-07-27T13:52:30.156Z,100949.84
2022-07-27T13:54:56.750Z,100960.16
2022-07-27T13:57:23.526Z,100959.75
2022-07-27T13:59:50.081Z,100963.44
2022-07-27T14:02:17.379Z,100951.22
2022-07-27T14:04:49.754Z,100953.06
2022-07-27T14:07:17.209Z,100948.00
2022-07-27T14:10:02.883Z,100952.28
2022-07-27T14:12:29.615Z,100960.56
2022-07-27T14:14:56.752Z,100956.41
2022-07-27T14:17:23.652Z,100961.28
2022-07-27T14:19:50.192Z,100967.78
2022-07-27T14:22:16.744Z,100960.56
2022-07-27T14:24:43.518Z,100953.19
2022-07-27T14:27:10.060Z,100946.75
2022-07-27T14:29:36.601Z,100953.03
2022-07-27T14:32:03.516Z,100943.19
2022-07-27T14:34:30.116Z,100941.50
2022-07-27T14:36:56.705Z,100947.38
2022-07-27T14:39:23.754Z,100947.16
2022-07-27T14:41:50.875Z,100943.38
2022-07-27T14:44:18.819Z,100940.78
2022-07-27T14:46:46.659Z,100938.19
2022-07-27T14:49:14.796Z,100935.75
2022-07-27T14:51:41.754Z,100936.38
2022-07-27T14:54:08.413Z,100936.78
2022-07-27T14:56:36.377Z,100929.47
2022-07-27T14:59:03.459Z,100931.19
2022-07-27T15:01:30.165Z,100940.22
2022-07-27T15:03:56.764Z,100930.91
2022-07-27T15:06:23.652Z,100936.50
2022-07-27T15:08:50.181Z,100934.44
2022-07-27T15:11:17.157Z,100937.09
2022-07-27T15:13:43.714Z,100928.38
2022-07-27T15:16:11.924Z,100932.69
2022-07-27T15:18:39.127Z,100942.09
2022-07-27T15:21:13.345Z,100938.69
2022-07-27T15:23:43.131Z,100936.91
2022-07-27T15:26:09.794Z,100940.00
2022-07-27T15:28:36.464Z,100937.84
2022-07-27T15:31:03.452Z,100925.47
2022-07-27T15:33:30.478Z,100932.78
2022-07-27T15:35:57.011Z,100940.69
2022-07-27T15:38:23.564Z,100930.53
2022-07-27T15:40:50.784Z,100934.28
2022-07-27T15:43:18.327Z,100933.22
2022-07-27T15:45:50.655Z,100934.50
2022-07-27T15:48:20.027Z,100939.38
2022-07-27T15:50:49.010Z,100952.38
2022-07-27T15:53:16.209Z,100946.38
2022-07-27T15:55:43.417Z,100943.75
2022-07-27T15:58:11.005Z,100946.25
2022-07-27T16:00:41.133Z,100946.53
2022-07-27T16:03:10.125Z,100941.91
2022-07-27T16:05:38.226Z,100945.69
2022-07-27T16:08:06.229Z,100946.47
2022-07-27T16:10:32.871Z,100942.75
2022-07-27T16:13:00.507Z,100940.06
2022-07-27T16:15:46.616Z,100939.41
2022-07-27T16:18:14.109Z,100933.88
2022-07-27T16:20:40.725Z,100943.59
2022-07-27T16:23:17.610Z,100941.50
2022-07-27T16:26:02.513Z,100934.22
2022-07-27T16:28:31.920Z,100944.03
2022-07-27T16:30:58.574Z,100936.50
2022-07-27T16:33:25.260Z,100945.88
2022-07-27T16:35:52.053Z,100941.72
2022-07-27T16:38:18.945Z,100939.22
2022-07-27T16:40:46.002Z,100944.00
2022-07-27T16:43:12.569Z,100945.69
2022-07-27T16:45:39.087Z,100936.91
2022-07-27T16:48:06.121Z,100936.53
2022-07-27T16:50:32.658Z,100938.06
2022-07-27T16:52:59.246Z,100952.00
2022-07-27T16:55:27.474Z,100945.72
2022-07-27T16:57:54.421Z,100949.88
2022-07-27T17:00:21.611Z,100947.19
2022-07-27T17:02:48.133Z,100949.69
2022-07-27T17:05:14.682Z,100946.97
2022-07-27T17:07:43.045Z,100957.66
2022-07-27T17:10:09.886Z,100957.69
2022-07-27T17:12:39.248Z,100951.16
2022-07-27T17:15:07.523Z,100955.94
2022-07-27T17:17:34.531Z,100953.47
2022-07-27T17:20:01.363Z,100957.84
2022-07-27T17:22:27.930Z,100950.88
2022-07-27T17:24:54.460Z,100946.69
2022-07-27T17:27:21.868Z,100944.25
2022-07-27T17:29:48.631Z,100943.41
2022-07-27T17:32:15.482Z,100945.53
2022-07-27T17:34:43.374Z,100939.88
2022-07-27T17:37:09.920Z,100939.47
2022-07-27T17:39:36.534Z,100951.13
2022-07-27T17:42:04.440Z,100960.31
2022-07-27T17:44:32.305Z,100953.03
2022-07-27T17:47:01.191Z,100948.25
2022-07-27T17:49:28.497Z,100938.22
2022-07-27T17:51:55.400Z,100944.28
2022-07-27T17:54:23.606Z,100945.19
2022-07-27T17:56:50.178Z,100950.50
2022-07-27T17:59:36.525Z,100949.25
2022-07-27T18:02:04.857Z,100951.63
2022-07-27T18:04:34.444Z,100946.47
2022-07-27T18:07:05.636Z,100951.34
2022-07-27T18:09:32.174Z,100949.22
2022-07-27T18:11:58.781Z,100952.94
2022-07-27T18:14:25.360Z,100956.88
2022-07-27T18:16:51.927Z,100955.34
2022-07-27T18:19:18.732Z,100965.13
2022-07-27T18:21:45.300Z,100954.34
2022-07-27T18:24:11.847Z,100965.63
2022-07-27T18:26:38.675Z,100969.94
2022-07-27T18:29:05.710Z,100971.13
2022-07-27T18:31:32.474Z,100973.63
2022-07-27T18:33:59.401Z,100980.34
2022-07-27T18:36:26.063Z,100982.56
2022-07-27T18:38:53.154Z,100979.09
2022-07-27T18:41:19.870Z,100983.22
2022-07-27T18:43:53.162Z,100985.28
2022-07-27T18:46:21.570Z,100981.44
2022-07-27T18:48:48.852Z,100987.50
2022-07-27T18:51:16.232Z,100994.06
2022-07-27T18:53:44.018Z,100993.63
2022-07-27T18:56:10.922Z,100996.09
2022-07-27T18:58:38.201Z,100990.78
2022-07-27T19:01:04.826Z,100997.03
2022-07-27T19:03:31.833Z,101002.09
2022-07-27T19:05:58.894Z,101000.97
2022-07-27T19:08:25.549Z,101002.06
2022-07-27T19:10:53.007Z,101002.25
2022-07-27T19:13:20.015Z,101009.50
2022-07-27T19:15:46.572Z,101007.09
2022-07-27T19:18:13.503Z,101008.31
2022-07-27T19:20:41.297Z,101006.88
2022-07-27T19:23:07.866Z,101017.88
2022-07-27T19:25:34.717Z,101013.56
2022-07-27T19:28:03.151Z,101015.66
2022-07-27T19:30:29.877Z,101022.50
2022-07-27T19:32:56.559Z,101023.97
2022-07-27T19:35:23.371Z,101022.50
2022-07-27T19:37:49.903Z,101031.28
2022-07-27T19:43:07.021Z,101035.38
2022-07-27T19:45:33.970Z,101034.19
2022-07-27T19:48:05.336Z,101034.66
2022-07-27T19:50:32.002Z,101040.06
2022-07-27T19:52:58.579Z,101045.00
2022-07-27T19:55:25.383Z,101042.22
2022-07-27T19:57:52.213Z,101055.81
2022-07-27T20:00:18.920Z,101051.66
2022-07-27T20:02:45.811Z,101056.09
2022-07-27T20:05:12.688Z,101052.47
2022-07-27T20:07:39.225Z,101051.31
2022-07-27T20:10:06.654Z,101061.00
2022-07-27T20:12:33.375Z,101056.31
2022-07-27T20:15:00.391Z,101060.16
2022-07-27T20:17:27.857Z,101059.41
2022-07-27T20:19:54.872Z,101066.22
2022-07-27T20:22:21.471Z,101058.75
2022-07-27T20:24:48.029Z,101070.09
2022-07-27T20:27:14.599Z,101070.22
2022-07-27T20:29:41.171Z,101076.78
2022-07-27T20:32:07.867Z,101081.75
2022-07-27T20:34:34.470Z,101080.41
2022-07-27T20:37:01.004Z,101082.75
2022-07-27T20:39:27.546Z,101081.38
2022-07-27T20:41:54.217Z,101086.97
2022-07-27T20:44:21.063Z,101087.47
2022-07-27T20:46:48.057Z,101082.41
2022-07-27T20:49:15.065Z,101089.44
2022-07-27T20:51:42.097Z,101090.72
2022-07-27T20:54:08.715Z,101085.84
2022-07-27T20:56:35.283Z,101084.47
2022-07-27T20:59:01.931Z,101083.19
2022-07-27T21:01:29.930Z,101084.72
2022-07-27T21:03:56.752Z,101085.47
2022-07-27T21:06:23.524Z,101076.72
2022-07-27T21:08:50.058Z,101076.38
2022-07-27T21:11:16.905Z,101077.91
2022-07-27T21:13:43.480Z,101081.09
2022-07-27T21:16:10.079Z,101081.09
2022-07-27T21:18:37.183Z,101084.31
2022-07-27T21:21:03.894Z,101089.22
2022-07-27T21:23:52.096Z,101098.47
2022-07-27T21:26:18.681Z,101098.81
2022-07-27T21:28:47.061Z,101088.34
2022-07-27T21:31:13.593Z,101090.38
2022-07-27T21:33:40.303Z,101098.47
2022-07-27T21:36:07.192Z,101093.91
2022-07-27T21:38:33.745Z,101089.34
2022-07-27T21:41:00.326Z,101094.59
2022-07-27T21:43:27.318Z,101085.50
2022-07-27T21:45:53.880Z,101094.91
2022-07-27T21:48:20.470Z,101091.97
2022-07-27T21:50:47.221Z,101085.19
2022-07-27T21:53:13.878Z,101086.22
2022-07-27T21:55:40.962Z,101088.31
2022-07-27T21:58:08.441Z,101095.06
2022-07-27T22:00:35.186Z,101095.84
2022-07-27T22:03:01.717Z,101091.94
2022-07-27T22:05:28.257Z,101089.81
2022-07-27T22:07:55.382Z,101090.75
2022-07-27T22:10:22.295Z,101090.63
2022-07-27T22:12:48.836Z,101081.91
2022-07-27T22:15:15.375Z,101087.28
2022-07-27T22:17:50.626Z,101082.53
2022-07-27T22:20:18.221Z,101080.63
2022-07-27T22:22:44.888Z,101091.66
2022-07-27T22:25:11.583Z,101088.03
2022-07-27T22:27:38.350Z,101101.81
2022-07-27T22:30:05.771Z,101106.63
2022-07-27T22:32:32.299Z,101100.94
2022-07-27T22:34:58.870Z,101100.78
2022-07-27T22:37:25.544Z,101101.97
2022-07-27T22:39:52.605Z,101102.41
2022-07-27T22:42:19.616Z,101104.28
2022-07-27T22:44:46.195Z,101103.44
2022-07-27T22:47:12.745Z,101113.63
2022-07-27T22:49:39.276Z,101103.28
2022-07-27T22:52:06.363Z,101107.41
2022-07-27T22:54:34.403Z,101106.66
2022-07-27T22:57:01.466Z,101103.44
2022-07-27T22:59:28.055Z,101106.88
2022-07-27T23:01:54.746Z,101100.78
2022-07-27T23:04:21.366Z,101102.78
2022-07-27T23:06:47.919Z,101106.78
2022-07-27T23:09:15.163Z,101105.38
2022-07-27T23:11:42.092Z,101105.13
2022-07-27T23:14:08.946Z,101104.81
2022-07-27T23:16:35.665Z,101111.31
2022-07-27T23:19:02.888Z,101102.50
2022-07-27T23:21:29.453Z,101116.31
2022-07-27T23:23:56.182Z,101110.47
2022-07-27T23:26:26.295Z,101108.53
2022-07-27T23:28:54.001Z,101103.94
2022-07-27T23:31:21.389Z,101097.75
2022-07-27T23:33:48.065Z,101103.63
2022-07-27T23:36:15.282Z,101098.56
2022-07-27T23:38:41.837Z,101103.53
2022-07-27T23:41:08.530Z,101106.41
2022-07-27T23:43:35.113Z,101102.81
2022-07-27T23:46:02.748Z,101104.13
2022-07-27T23:48:29.318Z,101098.63
2022-07-27T23:50:55.992Z,101102.84
2022-07-27T23:53:23.766Z,101102.41
2022-07-27T23:55:50.881Z,101096.63
2022-07-27T23:58:17.431Z,101107.91
